Time;durP1;ratioP1;P1;durP2;ratioP2;P2;SDS_P1;SDS_P2;PMS_P1;PMS_P2;Temp;Humidity;BMP_temperature;BMP_pressure;BME280_temperature;BME280_humidity;BME280_pressure;Samples;Min_cycle;Max_cycle;Signal;HPM_P1;HPM_P2
2021/10/24 00:01:22;;;;;;;44.90;17.27;;;;;;;;;;5073600;28;20026;-75
2021/10/24 00:03:48;;;;;;;32.03;13.63;;;;;;;;;;5090045;28;20016;-75
2021/10/24 00:06:14;;;;;;;46.73;14.90;;;;;;;;;;5089778;28;20158;-75
2021/10/24 00:08:39;;;;;;;35.50;13.97;;;;;;;;;;5071715;28;20051;-74
2021/10/24 00:11:06;;;;;;;39.27;14.20;;;;;;;;;;5071261;28;20561;-75
2021/10/24 00:13:32;;;;;;;32.70;15.83;;;;;;;;;;5073628;28;20047;-75
2021/10/24 00:15:59;;;;;;;33.77;15.53;;;;;;;;;;5075536;28;20019;-75
2021/10/24 00:18:24;;;;;;;28.87;14.03;;;;;;;;;;5094174;28;20038;-75
2021/10/24 00:20:51;;;;;;;39.17;14.57;;;;;;;;;;5093878;28;20141;-74
2021/10/24 00:23:17;;;;;;;38.37;16.47;;;;;;;;;;5093595;28;20361;-75
2021/10/24 00:25:43;;;;;;;42.03;16.60;;;;;;;;;;5075479;28;20186;-75
2021/10/24 00:28:09;;;;;;;40.17;15.20;;;;;;;;;;5075672;28;20551;-75
2021/10/24 00:30:35;;;;;;;33.77;14.97;;;;;;;;;;5075266;28;20062;-74
2021/10/24 00:33:04;;;;;;;42.40;15.67;;;;;;;;;;5075272;28;20050;-75
2021/10/24 00:35:30;;;;;;;35.40;14.53;;;;;;;;;;5075663;28;20034;-75
2021/10/24 00:37:55;;;;;;;34.73;14.33;;;;;;;;;;5093903;28;20407;-74
2021/10/24 00:40:21;;;;;;;43.87;15.93;;;;;;;;;;5093419;28;20028;-74
2021/10/24 00:42:49;;;;;;;40.30;15.30;;;;;;;;;;5093418;28;20039;-75
2021/10/24 00:45:15;;;;;;;39.97;16.13;;;;;;;;;;5074806;28;20235;-75
2021/10/24 00:47:40;;;;;;;36.67;15.47;;;;;;;;;;5093368;28;20455;-75
2021/10/24 00:50:06;;;;;;;33.77;13.90;;;;;;;;;;5093309;28;20082;-75
2021/10/24 00:52:32;;;;;;;41.67;15.60;;;;;;;;;;5075700;28;20028;-75
2021/10/24 00:54:58;;;;;;;33.57;15.33;;;;;;;;;;5077414;28;20032;-76
2021/10/24 00:57:23;;;;;;;34.33;14.13;;;;;;;;;;5077152;28;20433;-74
2021/10/24 00:59:49;;;;;;;44.60;16.70;;;;;;;;;;5075113;28;20024;-76
2021/10/24 01:02:14;;;;;;;36.03;13.83;;;;;;;;;;5074870;28;20391;-75
2021/10/24 01:04:40;;;;;;;33.63;13.40;;;;;;;;;;5074782;28;20024;-74
2021/10/24 01:07:06;;;;;;;32.83;13.60;;;;;;;;;;5075073;28;20483;-74
2021/10/24 01:09:32;;;;;;;31.87;14.73;;;;;;;;;;5092931;28;20059;-73
2021/10/24 01:11:59;;;;;;;32.90;14.33;;;;;;;;;;5074654;28;20110;-74
2021/10/24 01:14:26;;;;;;;32.43;14.23;;;;;;;;;;5074463;28;20383;-74
2021/10/24 01:16:51;;;;;;;34.03;13.80;;;;;;;;;;5092909;28;20020;-74
2021/10/24 01:19:18;;;;;;;38.90;15.00;;;;;;;;;;5074754;28;20042;-74
2021/10/24 01:21:44;;;;;;;35.60;13.93;;;;;;;;;;5074407;28;20066;-74
2021/10/24 01:24:11;;;;;;;33.33;13.40;;;;;;;;;;5074306;28;20074;-75
2021/10/24 01:26:39;;;;;;;32.43;14.17;;;;;;;;;;5092744;28;20048;-74
2021/10/24 01:29:06;;;;;;;30.87;13.57;;;;;;;;;;5074654;28;20028;-75
2021/10/24 01:31:32;;;;;;;29.33;12.53;;;;;;;;;;5074028;28;20044;-75
2021/10/24 01:33:58;;;;;;;34.90;13.17;;;;;;;;;;5074521;28;20127;-73
2021/10/24 01:36:24;;;;;;;39.07;14.37;;;;;;;;;;5057500;28;20170;-75
2021/10/24 01:38:50;;;;;;;39.63;14.43;;;;;;;;;;5092556;28;20067;-75
2021/10/24 01:41:17;;;;;;;30.13;14.33;;;;;;;;;;5092450;28;20078;-75
2021/10/24 01:43:44;;;;;;;31.37;13.17;;;;;;;;;;5074083;28;20384;-74
2021/10/24 01:46:09;;;;;;;29.77;13.00;;;;;;;;;;5073958;28;20061;-74
2021/10/24 01:48:36;;;;;;;29.43;12.93;;;;;;;;;;5092280;28;20483;-75
2021/10/24 01:51:03;;;;;;;42.47;14.73;;;;;;;;;;5074080;28;20057;-75
2021/10/24 01:53:36;;;;;;;30.97;13.00;;;;;;;;;;5073721;28;20043;-73
2021/10/24 01:56:02;;;;;;;30.57;13.30;;;;;;;;;;5074487;28;20028;-75
2021/10/24 01:58:28;;;;;;;33.00;12.50;;;;;;;;;;5092260;28;20164;-74
2021/10/24 02:00:54;;;;;;;44.73;16.67;;;;;;;;;;5074005;28;20562;-74
2021/10/24 02:03:20;;;;;;;33.77;13.80;;;;;;;;;;5092043;28;20491;-73
2021/10/24 02:05:46;;;;;;;27.40;12.90;;;;;;;;;;5091944;28;20020;-74
2021/10/24 02:08:13;;;;;;;31.47;12.27;;;;;;;;;;5073607;28;20032;-75
2021/10/24 02:10:39;;;;;;;25.53;12.40;;;;;;;;;;5091766;28;20423;-75
2021/10/24 02:13:06;;;;;;;31.10;14.60;;;;;;;;;;5073180;28;20082;-72
2021/10/24 02:15:33;;;;;;;34.97;12.03;;;;;;;;;;5092038;28;20020;-75
2021/10/24 02:17:59;;;;;;;29.60;11.87;;;;;;;;;;5073642;28;20028;-75
2021/10/24 02:20:25;;;;;;;37.07;12.70;;;;;;;;;;5073426;28;20032;-74
2021/10/24 02:22:51;;;;;;;34.23;14.23;;;;;;;;;;5091707;28;20024;-75
2021/10/24 02:25:17;;;;;;;31.17;12.83;;;;;;;;;;5091407;28;20035;-74
2021/10/24 02:27:42;;;;;;;33.50;13.80;;;;;;;;;;5091349;28;20101;-74
2021/10/24 02:30:10;;;;;;;35.63;13.00;;;;;;;;;;5072890;28;20102;-76
2021/10/24 02:32:36;;;;;;;33.23;11.93;;;;;;;;;;5073350;28;20032;-74
2021/10/24 02:35:02;;;;;;;28.20;11.97;;;;;;;;;;5090941;28;20032;-73
2021/10/24 02:37:28;;;;;;;28.13;12.63;;;;;;;;;;5072572;28;20085;-75
2021/10/24 02:39:53;;;;;;;29.40;12.43;;;;;;;;;;5073731;28;20054;-74
2021/10/24 02:42:19;;;;;;;25.87;12.47;;;;;;;;;;5073763;28;20468;-74
2021/10/24 02:44:44;;;;;;;30.70;12.47;;;;;;;;;;5073051;28;20024;-74
2021/10/24 02:47:10;;;;;;;31.73;11.90;;;;;;;;;;5072820;28;20032;-74
2021/10/24 02:49:35;;;;;;;35.43;13.00;;;;;;;;;;5073055;28;20031;-75
2021/10/24 02:52:02;;;;;;;31.77;13.03;;;;;;;;;;5073028;28;20105;-75
2021/10/24 02:54:27;;;;;;;31.67;12.60;;;;;;;;;;5072923;28;20035;-74
2021/10/24 02:56:53;;;;;;;28.57;11.83;;;;;;;;;;5091173;28;20375;-74
2021/10/24 02:59:19;;;;;;;29.27;10.70;;;;;;;;;;5090809;28;20028;-74
2021/10/24 03:01:46;;;;;;;35.50;13.33;;;;;;;;;;5091046;28;20108;-77
2021/10/24 03:04:12;;;;;;;24.80;12.53;;;;;;;;;;5090991;28;20031;-77
2021/10/24 03:06:38;;;;;;;29.47;12.20;;;;;;;;;;5073186;28;20039;-74
2021/10/24 03:09:04;;;;;;;35.87;12.90;;;;;;;;;;5073094;28;20058;-74
2021/10/24 03:11:29;;;;;;;32.53;12.87;;;;;;;;;;5090619;28;20059;-75
2021/10/24 03:13:55;;;;;;;25.20;13.17;;;;;;;;;;5072411;28;20024;-75
2021/10/24 03:16:21;;;;;;;31.63;12.10;;;;;;;;;;5072189;28;20032;-73
2021/10/24 03:18:46;;;;;;;36.40;15.33;;;;;;;;;;5090574;28;20094;-74
2021/10/24 03:21:12;;;;;;;34.17;13.30;;;;;;;;;;5071969;28;20023;-75
2021/10/24 03:23:38;;;;;;;28.30;11.83;;;;;;;;;;5071989;28;20114;-75
2021/10/24 03:26:03;;;;;;;28.20;13.53;;;;;;;;;;5090106;28;20020;-75
2021/10/24 03:28:29;;;;;;;36.80;13.53;;;;;;;;;;5090012;28;20028;-73
2021/10/24 03:30:56;;;;;;;32.93;12.87;;;;;;;;;;5071806;28;20052;-74
2021/10/24 03:33:22;;;;;;;29.13;12.33;;;;;;;;;;5071923;28;20020;-74
2021/10/24 03:35:47;;;;;;;31.17;12.80;;;;;;;;;;5090239;28;20364;-73
2021/10/24 03:38:13;;;;;;;31.27;12.73;;;;;;;;;;5090107;28;20122;-73
2021/10/24 03:40:38;;;;;;;37.87;12.80;;;;;;;;;;5089942;28;20834;-75
2021/10/24 03:43:04;;;;;;;24.40;11.67;;;;;;;;;;5090468;28;20499;-76
2021/10/24 03:45:29;;;;;;;34.20;13.30;;;;;;;;;;5089782;28;20036;-75
2021/10/24 03:47:55;;;;;;;29.47;12.90;;;;;;;;;;5070671;28;20027;-74
2021/10/24 03:50:21;;;;;;;23.33;11.83;;;;;;;;;;5071576;28;20116;-74
2021/10/24 03:52:47;;;;;;;28.53;12.67;;;;;;;;;;5071540;28;20506;-75
2021/10/24 03:55:14;;;;;;;30.90;12.63;;;;;;;;;;5089693;28;20024;-74
2021/10/24 03:57:40;;;;;;;33.30;13.60;;;;;;;;;;5089954;28;20055;-75
2021/10/24 04:00:07;;;;;;;30.90;12.80;;;;;;;;;;5071623;28;20031;-75
2021/10/24 04:02:33;;;;;;;28.77;12.73;;;;;;;;;;5089702;28;20027;-74
2021/10/24 04:04:58;;;;;;;31.83;12.73;;;;;;;;;;5089832;28;20024;-75
2021/10/24 04:07:24;;;;;;;25.67;13.10;;;;;;;;;;5089887;28;20094;-74
2021/10/24 04:09:49;;;;;;;28.97;13.53;;;;;;;;;;5071598;28;20058;-74
2021/10/24 04:12:15;;;;;;;30.67;13.77;;;;;;;;;;5071522;28;20387;-74
2021/10/24 04:14:41;;;;;;;36.43;14.27;;;;;;;;;;5089900;28;20032;-73
2021/10/24 04:17:08;;;;;;;27.20;11.50;;;;;;;;;;5071665;28;20101;-76
2021/10/24 04:19:33;;;;;;;32.87;12.70;;;;;;;;;;5071485;28;20031;-75
2021/10/24 04:21:59;;;;;;;29.63;13.70;;;;;;;;;;5089834;28;20024;-74
2021/10/24 04:24:24;;;;;;;36.77;13.27;;;;;;;;;;5089463;28;20021;-75
2021/10/24 04:26:50;;;;;;;32.53;12.60;;;;;;;;;;5089862;28;20396;-74
2021/10/24 04:29:16;;;;;;;31.53;14.03;;;;;;;;;;5089671;28;20032;-75
2021/10/24 04:31:43;;;;;;;28.10;12.53;;;;;;;;;;5071302;28;20055;-75
2021/10/24 04:34:09;;;;;;;26.63;12.53;;;;;;;;;;5089833;28;20048;-74
2021/10/24 04:36:34;;;;;;;32.73;13.70;;;;;;;;;;5071284;28;20067;-75
2021/10/24 04:39:00;;;;;;;29.60;12.40;;;;;;;;;;5071219;28;20028;-75
2021/10/24 04:41:26;;;;;;;32.90;12.47;;;;;;;;;;5071452;28;20024;-75
2021/10/24 04:43:51;;;;;;;32.73;12.67;;;;;;;;;;5089984;28;20052;-74
2021/10/24 04:46:17;;;;;;;30.20;12.50;;;;;;;;;;5072222;28;20024;-75
2021/10/24 04:48:42;;;;;;;41.20;13.13;;;;;;;;;;5089787;28;20020;-74
2021/10/24 04:51:08;;;;;;;27.77;12.87;;;;;;;;;;5089604;28;20526;-74
2021/10/24 04:53:33;;;;;;;36.33;13.10;;;;;;;;;;5071346;28;20035;-73
2021/10/24 04:55:59;;;;;;;39.03;12.77;;;;;;;;;;5071983;28;20371;-75
2021/10/24 04:58:24;;;;;;;35.03;12.63;;;;;;;;;;5089900;28;20024;-75
2021/10/24 05:00:50;;;;;;;35.00;13.23;;;;;;;;;;5078768;28;20454;-75
2021/10/24 05:03:15;;;;;;;30.70;14.00;;;;;;;;;;5080828;28;20097;-73
2021/10/24 05:05:41;;;;;;;30.27;12.80;;;;;;;;;;5099207;28;20034;-74
2021/10/24 05:08:06;;;;;;;28.33;11.73;;;;;;;;;;5099940;28;20024;-76
2021/10/24 05:10:32;;;;;;;38.53;14.00;;;;;;;;;;5094135;28;20083;-75
2021/10/24 05:12:57;;;;;;;38.43;13.50;;;;;;;;;;5076105;28;20028;-73
2021/10/24 05:15:23;;;;;;;28.80;12.93;;;;;;;;;;5074941;28;20051;-74
2021/10/24 05:17:49;;;;;;;26.93;13.00;;;;;;;;;;5092792;28;20024;-74
2021/10/24 05:20:15;;;;;;;30.40;12.07;;;;;;;;;;5074750;28;20109;-75
2021/10/24 05:22:40;;;;;;;27.47;11.73;;;;;;;;;;5074486;28;20074;-76
2021/10/24 05:25:06;;;;;;;28.00;12.57;;;;;;;;;;5092625;28;20024;-74
2021/10/24 05:27:32;;;;;;;28.70;13.70;;;;;;;;;;5074229;28;20119;-75
2021/10/24 05:29:57;;;;;;;20.83;11.90;;;;;;;;;;5074574;28;20038;-74
2021/10/24 05:32:23;;;;;;;27.87;12.40;;;;;;;;;;5074037;28;20144;-76
2021/10/24 05:34:48;;;;;;;31.87;13.67;;;;;;;;;;5074412;28;20028;-75
2021/10/24 05:37:15;;;;;;;29.67;12.40;;;;;;;;;;5092588;28;20027;-74
2021/10/24 05:39:41;;;;;;;31.30;13.33;;;;;;;;;;5074035;28;20028;-75
2021/10/24 05:42:06;;;;;;;32.97;13.23;;;;;;;;;;5074176;28;20039;-76
2021/10/24 05:44:32;;;;;;;37.57;14.20;;;;;;;;;;5073768;28;20055;-74
2021/10/24 05:46:57;;;;;;;38.67;14.10;;;;;;;;;;5073773;28;20471;-76
2021/10/24 05:49:23;;;;;;;34.67;13.63;;;;;;;;;;5091848;28;20028;-74
2021/10/24 05:51:49;;;;;;;35.27;13.90;;;;;;;;;;5092547;28;20081;-75
2021/10/24 05:54:14;;;;;;;41.13;16.00;;;;;;;;;;5074459;28;20035;-74
2021/10/24 05:56:41;;;;;;;36.47;14.53;;;;;;;;;;5057923;28;20488;-75
2021/10/24 05:59:06;;;;;;;33.87;12.87;;;;;;;;;;5093199;28;20043;-74
2021/10/24 06:01:32;;;;;;;33.80;13.17;;;;;;;;;;5092627;28;20034;-75
2021/10/24 06:03:57;;;;;;;36.27;14.40;;;;;;;;;;5073858;28;20031;-75
2021/10/24 06:06:23;;;;;;;28.37;13.00;;;;;;;;;;5073691;28;20024;-74
2021/10/24 06:08:48;;;;;;;28.97;12.77;;;;;;;;;;5091840;28;20419;-74
2021/10/24 06:11:46;;;;;;;38.97;12.90;;;;;;;;;;5090999;28;20145;-73
2021/10/24 06:14:00;;;;;;;35.20;14.60;;;;;;;;;;5090978;28;20093;-74
2021/10/24 06:16:27;;;;;;;36.87;13.60;;;;;;;;;;5073423;28;20024;-74
2021/10/24 06:18:53;;;;;;;32.20;12.73;;;;;;;;;;5073549;28;20024;-75
2021/10/24 06:21:20;;;;;;;27.10;10.93;;;;;;;;;;5073384;28;20028;-75
2021/10/24 06:23:45;;;;;;;29.73;12.60;;;;;;;;;;5073397;28;20074;-75
2021/10/24 06:26:11;;;;;;;31.63;14.50;;;;;;;;;;5091076;28;20549;-74
2021/10/24 06:28:37;;;;;;;27.50;13.13;;;;;;;;;;5073063;28;20471;-74
2021/10/24 06:31:02;;;;;;;32.37;12.50;;;;;;;;;;5091450;28;20071;-73
2021/10/24 06:33:27;;;;;;;35.43;14.33;;;;;;;;;;5073419;28;20032;-74
2021/10/24 06:35:53;;;;;;;35.23;13.73;;;;;;;;;;5073625;28;20039;-74
2021/10/24 06:38:20;;;;;;;27.80;12.83;;;;;;;;;;5073324;28;20179;-74
2021/10/24 06:40:46;;;;;;;36.33;14.13;;;;;;;;;;5091296;28;20251;-74
2021/10/24 06:43:11;;;;;;;30.50;13.80;;;;;;;;;;5091279;28;20020;-75
2021/10/24 06:45:37;;;;;;;33.80;13.20;;;;;;;;;;5072678;28;20032;-74
2021/10/24 06:48:04;;;;;;;34.60;14.90;;;;;;;;;;5073019;28;20031;-74
2021/10/24 06:50:29;;;;;;;34.43;13.97;;;;;;;;;;5091311;28;20032;-74
2021/10/24 06:52:55;;;;;;;31.10;14.03;;;;;;;;;;5090769;28;20042;-75
2021/10/24 06:55:20;;;;;;;34.33;15.03;;;;;;;;;;5091130;28;20093;-75
2021/10/24 06:57:52;;;;;;;30.17;14.10;;;;;;;;;;5090906;28;20036;-75
2021/10/24 07:00:20;;;;;;;37.80;14.90;;;;;;;;;;5072709;28;20032;-74
2021/10/24 07:02:46;;;;;;;32.83;14.37;;;;;;;;;;5055919;28;20495;-74
2021/10/24 07:05:11;;;;;;;34.80;14.40;;;;;;;;;;5072421;28;20050;-75
2021/10/24 07:07:37;;;;;;;30.70;14.63;;;;;;;;;;5072541;28;20377;-74
2021/10/24 07:10:05;;;;;;;30.23;14.57;;;;;;;;;;5072655;28;20055;-76
2021/10/24 07:12:31;;;;;;;44.60;14.43;;;;;;;;;;5072620;28;20058;-75
2021/10/24 07:14:56;;;;;;;39.40;18.47;;;;;;;;;;5090642;28;20024;-76
2021/10/24 07:17:22;;;;;;;36.43;15.13;;;;;;;;;;5090823;28;20031;-75
2021/10/24 07:19:48;;;;;;;37.60;15.40;;;;;;;;;;5090394;28;20472;-74
2021/10/24 07:22:14;;;;;;;32.00;14.13;;;;;;;;;;5090384;28;20020;-76
2021/10/24 07:24:39;;;;;;;38.57;16.67;;;;;;;;;;5090136;28;20027;-75
2021/10/24 07:27:05;;;;;;;39.00;16.07;;;;;;;;;;5071673;28;20028;-74
2021/10/24 07:29:30;;;;;;;39.53;16.03;;;;;;;;;;5090409;28;20396;-73
2021/10/24 07:31:56;;;;;;;35.30;16.23;;;;;;;;;;5090153;28;20529;-73
2021/10/24 07:34:23;;;;;;;40.47;15.80;;;;;;;;;;5072206;28;20468;-74
2021/10/24 07:36:49;;;;;;;34.93;15.77;;;;;;;;;;5072217;28;20024;-73
2021/10/24 07:39:14;;;;;;;33.47;15.53;;;;;;;;;;5071944;28;20027;-75
2021/10/24 07:41:40;;;;;;;35.27;15.87;;;;;;;;;;5090286;28;20440;-75
2021/10/24 07:44:07;;;;;;;42.73;15.77;;;;;;;;;;5090234;28;20592;-75
2021/10/24 07:46:33;;;;;;;39.10;15.57;;;;;;;;;;5071933;28;20107;-74
2021/10/24 07:48:59;;;;;;;39.70;17.33;;;;;;;;;;5090230;28;20040;-75
2021/10/24 07:51:24;;;;;;;44.73;17.70;;;;;;;;;;5071515;28;20062;-72
2021/10/24 07:53:52;;;;;;;34.90;17.20;;;;;;;;;;5071736;28;20603;-75
2021/10/24 07:56:18;;;;;;;34.20;16.87;;;;;;;;;;5089931;28;20028;-76
2021/10/24 07:58:44;;;;;;;35.60;16.40;;;;;;;;;;5071315;28;20089;-75
2021/10/24 08:01:10;;;;;;;41.40;16.00;;;;;;;;;;5090251;28;20035;-74
2021/10/24 08:03:35;;;;;;;33.13;15.47;;;;;;;;;;5071855;28;20016;-73
2021/10/24 08:06:02;;;;;;;32.73;15.27;;;;;;;;;;5089824;28;20024;-76
2021/10/24 08:08:27;;;;;;;37.00;16.27;;;;;;;;;;5054554;28;20036;-75
2021/10/24 08:10:53;;;;;;;32.07;14.67;;;;;;;;;;5071582;28;20500;-75
2021/10/24 08:13:18;;;;;;;31.20;14.33;;;;;;;;;;5071588;28;20056;-75
2021/10/24 08:15:47;;;;;;;35.67;15.47;;;;;;;;;;5089680;28;20383;-75
2021/10/24 08:18:12;;;;;;;34.37;15.27;;;;;;;;;;5071635;28;20028;-73
2021/10/24 08:20:40;;;;;;;35.43;16.13;;;;;;;;;;5089654;28;20085;-74
2021/10/24 08:23:06;;;;;;;43.30;18.37;;;;;;;;;;5071316;28;20027;-73
2021/10/24 08:25:31;;;;;;;37.80;15.33;;;;;;;;;;5070938;28;20024;-74
2021/10/24 08:27:59;;;;;;;33.67;15.07;;;;;;;;;;5071548;28;20399;-75
2021/10/24 08:30:25;;;;;;;36.80;16.33;;;;;;;;;;5089403;28;20024;-75
2021/10/24 08:32:51;;;;;;;33.23;14.63;;;;;;;;;;5071180;28;20027;-76
2021/10/24 08:35:17;;;;;;;34.50;15.47;;;;;;;;;;5074353;28;20027;-76
2021/10/24 08:37:43;;;;;;;30.93;15.07;;;;;;;;;;5093410;28;20028;-75
2021/10/24 08:40:09;;;;;;;34.17;15.93;;;;;;;;;;5075244;28;20476;-75
2021/10/24 08:42:39;;;;;;;36.23;15.77;;;;;;;;;;5093476;28;20483;-75
2021/10/24 08:45:07;;;;;;;35.90;15.53;;;;;;;;;;5094825;28;20024;-76
2021/10/24 08:47:33;;;;;;;31.53;16.13;;;;;;;;;;5075633;28;20031;-75
2021/10/24 08:49:59;;;;;;;35.93;16.27;;;;;;;;;;5093641;28;20032;-74
2021/10/24 08:52:25;;;;;;;36.63;16.77;;;;;;;;;;5093466;28;20158;-75
2021/10/24 08:54:53;;;;;;;37.73;15.67;;;;;;;;;;5075251;28;20373;-75
2021/10/24 08:57:28;;;;;;;35.30;14.37;;;;;;;;;;5093163;28;20502;-74
2021/10/24 09:00:02;;;;;;;30.47;13.97;;;;;;;;;;5093401;28;20451;-75
2021/10/24 09:02:54;;;;;;;33.33;16.03;;;;;;;;;;5074591;28;20100;-76
2021/10/24 09:05:45;;;;;;;37.72;15.45;;;;;;;;;;5074992;28;20399;-75
2021/10/24 09:08:16;;;;;;;31.25;14.85;;;;;;;;;;5093013;28;20024;-76
2021/10/24 09:10:47;;;;;;;29.10;14.43;;;;;;;;;;5092829;28;20028;-75
2021/10/24 09:13:37;;;;;;;34.65;14.90;;;;;;;;;;5074602;28;20035;-74
2021/10/24 09:16:05;;;;;;;33.17;14.37;;;;;;;;;;5074157;28;20118;-75
2021/10/24 09:18:37;;;;;;;29.07;14.87;;;;;;;;;;5092653;28;20023;-74
2021/10/24 09:21:15;;;;;;;30.05;13.38;;;;;;;;;;5092981;28;20106;-77
2021/10/24 09:24:10;;;;;;;49.57;23.27;;;;;;;;;;5092534;28;20408;-75
2021/10/24 09:26:38;;;;;;;27.63;13.43;;;;;;;;;;5057378;28;20093;-74
2021/10/24 09:29:10;;;;;;;27.87;13.33;;;;;;;;;;5092618;28;20032;-75
2021/10/24 09:31:44;;;;;;;25.13;13.27;;;;;;;;;;5070517;28;20102;-75
2021/10/24 09:34:20;;;;;;;27.80;12.93;;;;;;;;;;5072109;28;20104;-74
2021/10/24 09:37:00;;;;;;;30.33;12.73;;;;;;;;;;5071987;28;20025;-74
2021/10/24 09:39:27;;;;;;;29.57;13.67;;;;;;;;;;5072135;28;20434;-75
2021/10/24 09:42:16;;;;;;;27.20;12.27;;;;;;;;;;5070541;28;20234;-74
2021/10/24 09:45:07;;;;;;;25.07;11.93;;;;;;;;;;5071792;28;20016;-75
2021/10/24 09:47:39;;;;;;;25.30;11.43;;;;;;;;;;5071441;28;20060;-74
2021/10/24 09:50:05;;;;;;;;;;;;;;;;;;5073142;28;20024;-74
2021/10/24 09:52:32;;;;;;;25.70;11.23;;;;;;;;;;5053803;28;20253;-76
2021/10/24 09:54:58;;;;;;;21.93;11.63;;;;;;;;;;5070603;28;20028;-76
2021/10/24 09:57:24;;;;;;;22.60;9.93;;;;;;;;;;5070498;28;20251;-76
2021/10/24 09:59:55;;;;;;;20.10;9.70;;;;;;;;;;5070750;28;20028;-75
2021/10/24 10:02:25;;;;;;;23.87;10.37;;;;;;;;;;5070776;28;20541;-75
2021/10/24 10:04:50;;;;;;;24.53;10.03;;;;;;;;;;5078193;28;20017;-75
2021/10/24 10:07:17;;;;;;;21.67;9.50;;;;;;;;;;5077378;28;20204;-75
2021/10/24 10:09:44;;;;;;;29.40;10.90;;;;;;;;;;5075512;28;20648;-76
2021/10/24 10:12:18;;;;;;;21.50;10.63;;;;;;;;;;5071836;28;20021;-76
2021/10/24 10:14:46;;;;;;;21.90;9.73;;;;;;;;;;5071620;28;20059;-75
2021/10/24 10:17:14;;;;;;;27.13;10.57;;;;;;;;;;5071173;28;20109;-75
2021/10/24 10:19:44;;;;;;;21.47;9.57;;;;;;;;;;5070254;28;20127;-75
2021/10/24 10:22:22;;;;;;;23.33;9.43;;;;;;;;;;5070354;28;20032;-75
2021/10/24 10:25:00;;;;;;;18.03;9.33;;;;;;;;;;5069910;28;20074;-75
2021/10/24 10:27:29;;;;;;;19.77;7.80;;;;;;;;;;5070169;28;20035;-76
2021/10/24 10:30:00;;;;;;;20.47;8.33;;;;;;;;;;5072093;28;20029;-75
2021/10/24 10:32:33;;;;;;;21.38;9.82;;;;;;;;;;5053106;28;20056;-75
2021/10/24 10:35:03;;;;;;;24.43;10.07;;;;;;;;;;5070125;28;20039;-75
2021/10/24 10:37:50;;;;;;;25.30;11.07;;;;;;;;;;5069788;28;20264;-74
2021/10/24 10:40:34;;;;;;;19.27;8.87;;;;;;;;;;5069927;28;20046;-74
2021/10/24 10:43:04;;;;;;;24.37;9.13;;;;;;;;;;5071576;28;20024;-77
2021/10/24 10:45:35;;;;;;;22.47;9.47;;;;;;;;;;5072347;28;20024;-77
2021/10/24 10:48:28;;;;;;;26.88;13.23;;;;;;;;;;5070777;28;20032;-75
2021/10/24 10:50:56;;;;;;;32.43;12.87;;;;;;;;;;5039318;28;20050;-75
2021/10/24 10:53:42;;;;;;;18.63;10.70;;;;;;;;;;5069239;28;20040;-74
2021/10/24 10:56:07;;;;;;;24.00;10.47;;;;;;;;;;5055105;28;20028;-74
2021/10/24 10:58:38;;;;;;;21.73;11.00;;;;;;;;;;5070817;28;20422;-75
2021/10/24 11:01:21;;;;;;;21.57;11.90;;;;;;;;;;5069370;28;20063;-76
2021/10/24 11:03:51;;;;;;;32.10;14.27;;;;;;;;;;5069252;28;20024;-76
2021/10/24 11:06:23;;;;;;;28.00;10.60;;;;;;;;;;5069307;28;20511;-76
2021/10/24 11:08:56;;;;;;;23.98;11.90;;;;;;;;;;5070676;28;20028;-75
2021/10/24 11:11:44;;;;;;;22.47;9.57;;;;;;;;;;5068980;28;20028;-74
2021/10/24 11:14:15;;;;;;;21.77;9.77;;;;;;;;;;5068853;28;20488;-76
2021/10/24 11:16:49;;;;;;;18.90;8.40;;;;;;;;;;5070104;28;20032;-75
2021/10/24 11:19:29;;;;;;;24.60;10.30;;;;;;;;;;5069996;28;20020;-76
2021/10/24 11:22:01;;;;;;;18.93;8.90;;;;;;;;;;5069907;28;20151;-75
2021/10/24 11:24:36;;;;;;;21.35;9.55;;;;;;;;;;5068663;28;20016;-75
2021/10/24 11:27:06;;;;;;;22.33;10.33;;;;;;;;;;5068837;28;20032;-74
2021/10/24 11:29:33;;;;;;;16.53;7.27;;;;;;;;;;5068638;28;20032;-74
2021/10/24 11:32:33;;;;;;;20.80;9.13;;;;;;;;;;5068438;28;20048;-74
2021/10/24 11:35:15;;;;;;;15.40;7.63;;;;;;;;;;5069753;28;20488;-75
2021/10/24 11:37:58;;;;;;;17.30;7.73;;;;;;;;;;5068192;28;20076;-75
2021/10/24 11:40:34;;;;;;;20.92;8.30;;;;;;;;;;5070025;28;20574;-74
2021/10/24 11:43:17;;;;;;;20.97;7.53;;;;;;;;;;5068420;28;20073;-75
2021/10/24 11:45:47;;;;;;;14.63;7.33;;;;;;;;;;5068586;28;20021;-76
2021/10/24 11:48:17;;;;;;;19.73;8.30;;;;;;;;;;5069533;28;20029;-74
2021/10/24 11:51:01;;;;;;;21.57;8.37;;;;;;;;;;5068231;28;20056;-76
2021/10/24 11:53:39;;;;;;;20.02;7.55;;;;;;;;;;5069895;28;20020;-76
2021/10/24 11:56:15;;;;;;;19.25;7.20;;;;;;;;;;5068599;28;20032;-75
2021/10/24 11:58:52;;;;;;;17.38;6.93;;;;;;;;;;5067837;28;20403;-74
2021/10/24 12:01:26;;;;;;;17.27;6.57;;;;;;;;;;5069884;28;20150;-76
2021/10/24 12:04:12;;;;;;;18.27;6.93;;;;;;;;;;5069293;28;20096;-76
2021/10/24 12:06:58;;;;;;;12.93;6.55;;;;;;;;;;5069511;28;20029;-77
2021/10/24 12:09:33;;;;;;;17.27;7.38;;;;;;;;;;5069343;28;20104;-76
2021/10/24 12:12:12;;;;;;;22.30;7.18;;;;;;;;;;5067743;28;20070;-74
2021/10/24 12:14:52;;;;;;;11.90;5.15;;;;;;;;;;5068092;28;20673;-75
2021/10/24 12:17:20;;;;;;;7.35;2.83;;;;;;;;;;5069694;28;20025;-76
2021/10/24 12:19:45;;;;;;;3.80;2.13;;;;;;;;;;5069588;28;20044;-76
2021/10/24 12:22:11;;;;;;;6.55;2.55;;;;;;;;;;5069616;28;20031;-75
2021/10/24 12:24:45;;;;;;;7.57;3.35;;;;;;;;;;5067866;28;20471;-74
2021/10/24 12:27:28;;;;;;;4.65;2.30;;;;;;;;;;5069282;28;20024;-75
2021/10/24 12:30:03;;;;;;;5.93;1.80;;;;;;;;;;5067842;28;20036;-75
2021/10/24 12:32:30;;;;;;;7.68;2.30;;;;;;;;;;5086917;28;20094;-76
2021/10/24 12:34:57;;;;;;;8.32;2.65;;;;;;;;;;5054206;28;20515;-75
2021/10/24 12:37:24;;;;;;;6.30;2.05;;;;;;;;;;5071048;28;20040;-75
2021/10/24 12:40:09;;;;;;;4.60;2.40;;;;;;;;;;5071033;28;20082;-75
2021/10/24 12:42:35;;;;;;;4.72;2.20;;;;;;;;;;5070968;28;20038;-75
2021/10/24 12:45:13;;;;;;;16.02;2.70;;;;;;;;;;5089151;28;20563;-77
2021/10/24 12:47:38;;;;;;;3.90;2.20;;;;;;;;;;5089219;28;20028;-75
2021/10/24 12:50:04;;;;;;;9.80;5.80;;;;;;;;;;5089143;28;20887;-75
2021/10/24 12:52:31;;;;;;;7.15;3.58;;;;;;;;;;5070855;28;20119;-75
2021/10/24 12:54:59;;;;;;;9.63;3.85;;;;;;;;;;5070808;28;20111;-75
2021/10/24 12:57:25;;;;;;;10.52;2.78;;;;;;;;;;5071002;28;20070;-76
2021/10/24 12:59:51;;;;;;;12.20;3.30;;;;;;;;;;5089146;28;20055;-77
2021/10/24 13:02:17;;;;;;;7.65;3.55;;;;;;;;;;5054285;28;20028;-74
2021/10/24 13:04:44;;;;;;;5.35;2.80;;;;;;;;;;5088684;28;20298;-74
2021/10/24 13:07:09;;;;;;;4.82;2.45;;;;;;;;;;5054689;28;20032;-75
2021/10/24 13:09:35;;;;;;;7.25;2.70;;;;;;;;;;5070411;28;20039;-75
2021/10/24 13:12:01;;;;;;;9.20;2.70;;;;;;;;;;5070682;28;20027;-75
2021/10/24 13:14:27;;;;;;;8.38;2.95;;;;;;;;;;5070825;28;20035;-76
2021/10/24 13:16:52;;;;;;;5.82;2.75;;;;;;;;;;5088734;28;20126;-76
2021/10/24 13:19:18;;;;;;;7.13;2.38;;;;;;;;;;5070894;28;20369;-76
2021/10/24 13:24:12;;;;;;;7.00;2.83;;;;;;;;;;5092805;28;20039;-76
2021/10/24 13:26:40;;;;;;;10.85;3.03;;;;;;;;;;5074121;28;20052;-76
2021/10/24 13:29:07;;;;;;;6.75;3.03;;;;;;;;;;5092609;28;20032;-76
2021/10/24 13:31:34;;;;;;;8.30;2.40;;;;;;;;;;5092528;28;20056;-76
2021/10/24 13:34:00;;;;;;;8.57;2.17;;;;;;;;;;5057096;28;20059;-76
2021/10/24 13:36:25;;;;;;;9.30;2.17;;;;;;;;;;5074158;28;20144;-77
2021/10/24 13:38:53;;;;;;;9.38;2.80;;;;;;;;;;5092465;28;20024;-76
2021/10/24 13:41:20;;;;;;;10.98;2.33;;;;;;;;;;5057673;28;20077;-76
2021/10/24 13:43:45;;;;;;;7.80;2.65;;;;;;;;;;5073926;28;20042;-74
2021/10/24 13:46:12;;;;;;;7.88;2.72;;;;;;;;;;5074245;28;20471;-76
2021/10/24 13:48:41;;;;;;;8.63;2.65;;;;;;;;;;5092371;28;20028;-75
2021/10/24 13:51:08;;;;;;;4.95;2.50;;;;;;;;;;5074000;28;20028;-75
2021/10/24 13:53:36;;;;;;;8.20;1.92;;;;;;;;;;5073739;28;20023;-75
2021/10/24 13:56:02;;;;;;;4.00;1.75;;;;;;;;;;5091970;28;20038;-76
2021/10/24 13:58:28;;;;;;;5.28;1.80;;;;;;;;;;5091858;28;20476;-76
2021/10/24 14:00:54;;;;;;;6.18;2.20;;;;;;;;;;5073716;28;20034;-75
2021/10/24 14:03:20;;;;;;;6.38;2.83;;;;;;;;;;5073853;28;20034;-76
2021/10/24 14:05:46;;;;;;;5.57;2.17;;;;;;;;;;5073576;28;20391;-74
2021/10/24 14:08:12;;;;;;;6.22;3.65;;;;;;;;;;5092150;28;20028;-76
2021/10/24 14:10:38;;;;;;;8.50;2.10;;;;;;;;;;5091647;28;20028;-74
2021/10/24 14:13:04;;;;;;;4.97;1.95;;;;;;;;;;5073404;28;20375;-75
2021/10/24 14:15:31;;;;;;;11.25;3.42;;;;;;;;;;5091770;28;20035;-75
2021/10/24 14:17:59;;;;;;;7.03;2.17;;;;;;;;;;5091607;28;20417;-76
2021/10/24 14:20:25;;;;;;;6.80;2.05;;;;;;;;;;5091461;28;20048;-74
2021/10/24 14:22:51;;;;;;;8.30;2.50;;;;;;;;;;5073171;28;20074;-76
2021/10/24 14:25:16;;;;;;;7.78;2.40;;;;;;;;;;5073315;28;20503;-75
2021/10/24 14:27:42;;;;;;;4.80;2.38;;;;;;;;;;5073663;28;20055;-75
2021/10/24 14:30:09;;;;;;;5.07;2.17;;;;;;;;;;5091799;28;20024;-76
2021/10/24 14:32:35;;;;;;;11.63;2.75;;;;;;;;;;5090544;28;20051;-74